sensor_id;sensor_type;location;lat;lon;timestamp;pressure;altitude;pressure_sealevel;temperature;humidity
62946;BME280;52164;52.212;-1.010;2022-11-15T00:01:09;99376.48;;;9.27;82.79
62946;BME280;52164;52.212;-1.010;2022-11-15T00:03:35;99373.48;;;9.25;82.97
62946;BME280;52164;52.212;-1.010;2022-11-15T00:06:02;99375.63;;;9.24;82.75
62946;BME280;52164;52.212;-1.010;2022-11-15T00:08:32;99371.20;;;9.22;82.68
62946;BME280;52164;52.212;-1.010;2022-11-15T00:11:00;99364.81;;;9.20;82.80
62946;BME280;52164;52.212;-1.010;2022-11-15T00:13:26;99361.64;;;9.18;82.59
62946;BME280;52164;52.212;-1.010;2022-11-15T00:15:52;99361.68;;;9.14;82.75
62946;BME280;52164;52.212;-1.010;2022-11-15T00:18:18;99355.31;;;9.11;82.57
62946;BME280;52164;52.212;-1.010;2022-11-15T00:20:44;99356.98;;;9.06;82.78
62946;BME280;52164;52.212;-1.010;2022-11-15T00:23:09;99353.31;;;9.01;82.83
62946;BME280;52164;52.212;-1.010;2022-11-15T00:25:35;99351.23;;;8.95;82.66
62946;BME280;52164;52.212;-1.010;2022-11-15T00:28:00;99346.67;;;8.91;82.77
62946;BME280;52164;52.212;-1.010;2022-11-15T00:30:27;99341.71;;;8.88;83.11
62946;BME280;52164;52.212;-1.010;2022-11-15T00:32:53;99336.21;;;8.86;82.99
62946;BME280;52164;52.212;-1.010;2022-11-15T00:35:18;99329.50;;;8.83;82.75
62946;BME280;52164;52.212;-1.010;2022-11-15T00:37:44;99323.82;;;8.81;83.16
62946;BME280;52164;52.212;-1.010;2022-11-15T00:40:11;99319.20;;;8.81;83.01
62946;BME280;52164;52.212;-1.010;2022-11-15T00:42:38;99317.44;;;8.80;82.99
62946;BME280;52164;52.212;-1.010;2022-11-15T00:45:04;99312.10;;;8.80;82.93
62946;BME280;52164;52.212;-1.010;2022-11-15T00:47:30;99311.76;;;8.79;82.89
62946;BME280;52164;52.212;-1.010;2022-11-15T00:49:55;99308.20;;;8.79;82.81
62946;BME280;52164;52.212;-1.010;2022-11-15T00:52:21;99302.70;;;8.78;83.01
62946;BME280;52164;52.212;-1.010;2022-11-15T00:54:46;99292.22;;;8.77;82.65
62946;BME280;52164;52.212;-1.010;2022-11-15T00:57:12;99288.84;;;8.76;82.54
62946;BME280;52164;52.212;-1.010;2022-11-15T00:59:40;99290.27;;;8.76;82.60
62946;BME280;52164;52.212;-1.010;2022-11-15T01:02:05;99285.48;;;8.75;82.50
62946;BME280;52164;52.212;-1.010;2022-11-15T01:04:31;99284.93;;;8.76;82.79
62946;BME280;52164;52.212;-1.010;2022-11-15T01:06:56;99273.21;;;8.74;82.71
62946;BME280;52164;52.212;-1.010;2022-11-15T01:09:22;99270.39;;;8.72;82.28
62946;BME280;52164;52.212;-1.010;2022-11-15T01:11:47;99264.17;;;8.71;82.38
62946;BME280;52164;52.212;-1.010;2022-11-15T01:14:13;99261.19;;;8.69;82.38
62946;BME280;52164;52.212;-1.010;2022-11-15T01:16:39;99257.27;;;8.69;82.34
62946;BME280;52164;52.212;-1.010;2022-11-15T01:19:04;99254.06;;;8.70;82.52
62946;BME280;52164;52.212;-1.010;2022-11-15T01:21:30;99251.36;;;8.71;82.23
62946;BME280;52164;52.212;-1.010;2022-11-15T01:23:56;99248.17;;;8.71;82.48
62946;BME280;52164;52.212;-1.010;2022-11-15T01:26:23;99242.48;;;8.71;82.32
62946;BME280;52164;52.212;-1.010;2022-11-15T01:28:49;99234.30;;;8.72;82.03
62946;BME280;52164;52.212;-1.010;2022-11-15T01:31:17;99224.50;;;8.72;82.27
62946;BME280;52164;52.212;-1.010;2022-11-15T01:33:43;99219.18;;;8.71;82.35
62946;BME280;52164;52.212;-1.010;2022-11-15T01:36:13;99212.45;;;8.69;82.37
62946;BME280;52164;52.212;-1.010;2022-11-15T01:38:39;99205.68;;;8.70;82.21
62946;BME280;52164;52.212;-1.010;2022-11-15T01:41:04;99205.69;;;8.69;82.18
62946;BME280;52164;52.212;-1.010;2022-11-15T01:43:33;99196.30;;;8.66;82.18
62946;BME280;52164;52.212;-1.010;2022-11-15T01:46:04;99197.79;;;8.61;82.13
62946;BME280;52164;52.212;-1.010;2022-11-15T01:48:33;99191.23;;;8.59;82.20
62946;BME280;52164;52.212;-1.010;2022-11-15T01:51:02;99185.23;;;8.56;82.24
62946;BME280;52164;52.212;-1.010;2022-11-15T01:53:29;99177.41;;;8.55;82.24
62946;BME280;52164;52.212;-1.010;2022-11-15T01:55:57;99169.80;;;8.53;82.37
62946;BME280;52164;52.212;-1.010;2022-11-15T01:58:23;99171.73;;;8.54;82.34
62946;BME280;52164;52.212;-1.010;2022-11-15T02:00:48;99164.45;;;8.54;82.27
62946;BME280;52164;52.212;-1.010;2022-11-15T02:03:15;99154.64;;;8.55;82.31
62946;BME280;52164;52.212;-1.010;2022-11-15T02:05:41;99147.89;;;8.56;82.31
62946;BME280;52164;52.212;-1.010;2022-11-15T02:08:09;99136.11;;;8.58;82.53
62946;BME280;52164;52.212;-1.010;2022-11-15T02:10:46;99130.22;;;8.60;82.36
62946;BME280;52164;52.212;-1.010;2022-11-15T02:13:14;99127.19;;;8.61;82.40
62946;BME280;52164;52.212;-1.010;2022-11-15T02:15:50;99129.48;;;8.62;82.37
62946;BME280;52164;52.212;-1.010;2022-11-15T02:18:26;99132.12;;;8.64;82.28
62946;BME280;52164;52.212;-1.010;2022-11-15T02:33:54;99086.21;;;8.66;81.90
62946;BME280;52164;52.212;-1.010;2022-11-15T02:41:25;99076.09;;;8.64;82.12
62946;BME280;52164;52.212;-1.010;2022-11-15T02:42:04;99077.28;;;8.68;82.24
62946;BME280;52164;52.212;-1.010;2022-11-15T02:44:53;99073.89;;;8.68;82.14
62946;BME280;52164;52.212;-1.010;2022-11-15T02:47:21;99068.39;;;8.68;82.21
62946;BME280;52164;52.212;-1.010;2022-11-15T02:49:52;99063.41;;;8.68;82.25
62946;BME280;52164;52.212;-1.010;2022-11-15T02:52:21;99056.48;;;8.67;82.36
62946;BME280;52164;52.212;-1.010;2022-11-15T02:54:56;99055.17;;;8.72;82.37
62946;BME280;52164;52.212;-1.010;2022-11-15T03:00:15;99033.60;;;8.75;82.37
62946;BME280;52164;52.212;-1.010;2022-11-15T03:05:26;99032.65;;;8.78;82.42
62946;BME280;52164;52.212;-1.010;2022-11-15T03:08:05;99026.63;;;8.77;82.18
62946;BME280;52164;52.212;-1.010;2022-11-15T03:10:42;99025.39;;;8.77;82.34
62946;BME280;52164;52.212;-1.010;2022-11-15T03:13:34;99015.45;;;8.76;82.38
62946;BME280;52164;52.212;-1.010;2022-11-15T03:16:03;99010.10;;;8.77;82.47
62946;BME280;52164;52.212;-1.010;2022-11-15T03:18:37;98999.94;;;8.77;82.48
62946;BME280;52164;52.212;-1.010;2022-11-15T03:21:07;98998.66;;;8.79;82.59
62946;BME280;52164;52.212;-1.010;2022-11-15T03:23:34;98991.31;;;8.82;82.43
62946;BME280;52164;52.212;-1.010;2022-11-15T03:26:01;98988.95;;;8.85;82.77
62946;BME280;52164;52.212;-1.010;2022-11-15T03:28:36;98983.91;;;8.88;82.57
62946;BME280;52164;52.212;-1.010;2022-11-15T03:31:03;98985.61;;;8.93;82.60
62946;BME280;52164;52.212;-1.010;2022-11-15T03:33:51;98983.73;;;8.98;82.52
62946;BME280;52164;52.212;-1.010;2022-11-15T03:36:19;98980.63;;;9.03;82.53
62946;BME280;52164;52.212;-1.010;2022-11-15T03:38:46;98972.91;;;9.08;82.50
62946;BME280;52164;52.212;-1.010;2022-11-15T03:41:18;98968.02;;;9.12;82.45
62946;BME280;52164;52.212;-1.010;2022-11-15T03:43:55;98959.61;;;9.14;82.39
62946;BME280;52164;52.212;-1.010;2022-11-15T03:46:27;98951.22;;;9.15;82.41
62946;BME280;52164;52.212;-1.010;2022-11-15T03:48:58;98939.64;;;9.16;82.57
62946;BME280;52164;52.212;-1.010;2022-11-15T03:51:25;98932.98;;;9.19;82.67
62946;BME280;52164;52.212;-1.010;2022-11-15T03:53:51;98938.46;;;9.22;82.49
62946;BME280;52164;52.212;-1.010;2022-11-15T03:56:16;98932.73;;;9.23;82.72
62946;BME280;52164;52.212;-1.010;2022-11-15T03:58:42;98931.77;;;9.27;82.61
62946;BME280;52164;52.212;-1.010;2022-11-15T04:01:07;98929.58;;;9.30;82.62
62946;BME280;52164;52.212;-1.010;2022-11-15T04:03:32;98926.65;;;9.34;82.76
62946;BME280;52164;52.212;-1.010;2022-11-15T04:06:01;98922.08;;;9.40;82.74
62946;BME280;52164;52.212;-1.010;2022-11-15T04:08:27;98918.05;;;9.44;82.79
62946;BME280;52164;52.212;-1.010;2022-11-15T04:10:52;98910.14;;;9.48;82.82
62946;BME280;52164;52.212;-1.010;2022-11-15T04:13:19;98906.87;;;9.51;82.66
62946;BME280;52164;52.212;-1.010;2022-11-15T04:15:45;98901.64;;;9.54;82.80
62946;BME280;52164;52.212;-1.010;2022-11-15T04:18:10;98894.42;;;9.58;82.73
62946;BME280;52164;52.212;-1.010;2022-11-15T04:20:35;98888.64;;;9.62;82.74
62946;BME280;52164;52.212;-1.010;2022-11-15T04:23:22;98884.17;;;9.63;82.70
62946;BME280;52164;52.212;-1.010;2022-11-15T04:26:11;98886.61;;;9.66;82.83
62946;BME280;52164;52.212;-1.010;2022-11-15T04:28:37;98879.23;;;9.68;82.86
62946;BME280;52164;52.212;-1.010;2022-11-15T04:31:23;98867.98;;;9.70;82.95
62946;BME280;52164;52.212;-1.010;2022-11-15T04:33:48;98862.96;;;9.72;82.94
62946;BME280;52164;52.212;-1.010;2022-11-15T04:36:14;98864.20;;;9.73;82.79
62946;BME280;52164;52.212;-1.010;2022-11-15T04:38:59;98856.33;;;9.74;82.87
62946;BME280;52164;52.212;-1.010;2022-11-15T04:41:24;98847.60;;;9.74;82.91
62946;BME280;52164;52.212;-1.010;2022-11-15T04:43:50;98838.50;;;9.74;83.03
62946;BME280;52164;52.212;-1.010;2022-11-15T04:46:16;98835.83;;;9.74;83.08
62946;BME280;52164;52.212;-1.010;2022-11-15T04:48:41;98832.61;;;9.75;82.93
62946;BME280;52164;52.212;-1.010;2022-11-15T04:51:07;98828.88;;;9.74;82.94
62946;BME280;52164;52.212;-1.010;2022-11-15T04:53:32;98825.83;;;9.75;82.99
62946;BME280;52164;52.212;-1.010;2022-11-15T04:55:58;98827.60;;;9.76;83.06
62946;BME280;52164;52.212;-1.010;2022-11-15T04:58:23;98824.53;;;9.77;83.21
62946;BME280;52164;52.212;-1.010;2022-11-15T05:00:49;98815.92;;;9.80;83.23
62946;BME280;52164;52.212;-1.010;2022-11-15T05:03:14;98809.99;;;9.81;83.31
62946;BME280;52164;52.212;-1.010;2022-11-15T05:05:59;98806.74;;;9.83;83.32
62946;BME280;52164;52.212;-1.010;2022-11-15T05:08:26;98801.34;;;9.86;83.46
62946;BME280;52164;52.212;-1.010;2022-11-15T05:10:51;98800.90;;;9.89;83.52
62946;BME280;52164;52.212;-1.010;2022-11-15T05:13:17;98794.95;;;9.92;83.57
62946;BME280;52164;52.212;-1.010;2022-11-15T05:15:43;98793.63;;;9.95;83.61
62946;BME280;52164;52.212;-1.010;2022-11-15T05:18:08;98792.11;;;9.99;83.64
62946;BME280;52164;52.212;-1.010;2022-11-15T05:20:34;98795.13;;;10.00;83.56
62946;BME280;52164;52.212;-1.010;2022-11-15T05:22:59;98787.95;;;10.02;83.57
62946;BME280;52164;52.212;-1.010;2022-11-15T05:25:25;98780.23;;;10.03;83.63
62946;BME280;52164;52.212;-1.010;2022-11-15T05:27:51;98778.92;;;10.06;83.64
62946;BME280;52164;52.212;-1.010;2022-11-15T05:30:16;98767.80;;;10.09;83.79
62946;BME280;52164;52.212;-1.010;2022-11-15T05:32:42;98764.73;;;10.10;83.76
62946;BME280;52164;52.212;-1.010;2022-11-15T05:35:12;98762.88;;;10.13;83.81
62946;BME280;52164;52.212;-1.010;2022-11-15T05:37:41;98760.69;;;10.15;83.68
62946;BME280;52164;52.212;-1.010;2022-11-15T05:40:07;98753.55;;;10.15;83.78
62946;BME280;52164;52.212;-1.010;2022-11-15T05:42:32;98749.99;;;10.15;83.81
62946;BME280;52164;52.212;-1.010;2022-11-15T05:44:59;98742.50;;;10.15;83.81
62946;BME280;52164;52.212;-1.010;2022-11-15T05:47:28;98741.06;;;10.16;83.84
62946;BME280;52164;52.212;-1.010;2022-11-15T05:49:55;98735.52;;;10.16;83.99
62946;BME280;52164;52.212;-1.010;2022-11-15T05:52:25;98735.34;;;10.17;84.03
62946;BME280;52164;52.212;-1.010;2022-11-15T05:54:54;98724.06;;;10.18;84.09
62946;BME280;52164;52.212;-1.010;2022-11-15T05:57:20;98723.52;;;10.18;84.17
62946;BME280;52164;52.212;-1.010;2022-11-15T05:59:46;98720.30;;;10.18;84.38
62946;BME280;52164;52.212;-1.010;2022-11-15T06:02:12;98718.45;;;10.20;84.35
62946;BME280;52164;52.212;-1.010;2022-11-15T06:04:37;98712.39;;;10.21;84.44
62946;BME280;52164;52.212;-1.010;2022-11-15T06:07:03;98705.61;;;10.21;84.47
62946;BME280;52164;52.212;-1.010;2022-11-15T06:09:28;98702.19;;;10.22;84.49
62946;BME280;52164;52.212;-1.010;2022-11-15T06:11:54;98694.88;;;10.22;84.55
62946;BME280;52164;52.212;-1.010;2022-11-15T06:14:19;98696.15;;;10.22;84.62
62946;BME280;52164;52.212;-1.010;2022-11-15T06:16:45;98693.98;;;10.22;84.72
62946;BME280;52164;52.212;-1.010;2022-11-15T06:19:10;98687.89;;;10.23;84.83
62946;BME280;52164;52.212;-1.010;2022-11-15T06:21:36;98685.91;;;10.25;84.77
62946;BME280;52164;52.212;-1.010;2022-11-15T06:24:01;98679.80;;;10.26;85.04
62946;BME280;52164;52.212;-1.010;2022-11-15T06:26:27;98679.27;;;10.26;84.88
62946;BME280;52164;52.212;-1.010;2022-11-15T06:28:52;98675.13;;;10.28;85.12
62946;BME280;52164;52.212;-1.010;2022-11-15T06:31:18;98679.17;;;10.30;85.11
62946;BME280;52164;52.212;-1.010;2022-11-15T06:33:43;98680.36;;;10.31;85.08
62946;BME280;52164;52.212;-1.010;2022-11-15T06:36:11;98675.93;;;10.31;85.16
62946;BME280;52164;52.212;-1.010;2022-11-15T06:38:39;98672.37;;;10.31;85.43
62946;BME280;52164;52.212;-1.010;2022-11-15T06:41:06;98672.69;;;10.32;85.34
62946;BME280;52164;52.212;-1.010;2022-11-15T06:43:33;98664.30;;;10.33;85.55
62946;BME280;52164;52.212;-1.010;2022-11-15T06:45:59;98663.55;;;10.34;85.51
62946;BME280;52164;52.212;-1.010;2022-11-15T06:48:26;98663.85;;;10.36;85.65
62946;BME280;52164;52.212;-1.010;2022-11-15T06:50:55;98660.98;;;10.37;85.85
62946;BME280;52164;52.212;-1.010;2022-11-15T06:53:22;98658.08;;;10.38;85.79
62946;BME280;52164;52.212;-1.010;2022-11-15T06:55:48;98654.50;;;10.39;85.76
62946;BME280;52164;52.212;-1.010;2022-11-15T06:58:13;98650.04;;;10.39;85.97
62946;BME280;52164;52.212;-1.010;2022-11-15T07:00:39;98651.77;;;10.41;86.02
62946;BME280;52164;52.212;-1.010;2022-11-15T07:03:05;98642.86;;;10.41;85.99
62946;BME280;52164;52.212;-1.010;2022-11-15T07:05:31;98640.77;;;10.40;86.05
62946;BME280;52164;52.212;-1.010;2022-11-15T07:07:57;98639.70;;;10.39;86.15
62946;BME280;52164;52.212;-1.010;2022-11-15T07:10:24;98639.48;;;10.41;86.11
62946;BME280;52164;52.212;-1.010;2022-11-15T07:12:51;98635.88;;;10.42;86.40
62946;BME280;52164;52.212;-1.010;2022-11-15T07:15:17;98631.16;;;10.44;86.37
62946;BME280;52164;52.212;-1.010;2022-11-15T07:17:43;98628.09;;;10.46;86.34
62946;BME280;52164;52.212;-1.010;2022-11-15T07:20:09;98621.48;;;10.47;86.38
62946;BME280;52164;52.212;-1.010;2022-11-15T07:22:34;98621.58;;;10.49;86.49
62946;BME280;52164;52.212;-1.010;2022-11-15T07:25:00;98615.33;;;10.49;86.43
62946;BME280;52164;52.212;-1.010;2022-11-15T07:27:25;98612.61;;;10.50;86.53
62946;BME280;52164;52.212;-1.010;2022-11-15T07:29:51;98601.86;;;10.52;86.59
62946;BME280;52164;52.212;-1.010;2022-11-15T07:32:16;98603.06;;;10.54;86.59
62946;BME280;52164;52.212;-1.010;2022-11-15T07:34:42;98597.14;;;10.55;86.63
62946;BME280;52164;52.212;-1.010;2022-11-15T07:37:08;98604.20;;;10.58;86.76
62946;BME280;52164;52.212;-1.010;2022-11-15T07:39:33;98599.13;;;10.60;86.70
62946;BME280;52164;52.212;-1.010;2022-11-15T07:41:59;98591.95;;;10.61;86.68
62946;BME280;52164;52.212;-1.010;2022-11-15T07:44:45;98591.73;;;10.63;86.73
62946;BME280;52164;52.212;-1.010;2022-11-15T07:47:10;98589.55;;;10.64;86.74
62946;BME280;52164;52.212;-1.010;2022-11-15T07:49:35;98588.21;;;10.66;86.72
62946;BME280;52164;52.212;-1.010;2022-11-15T07:52:01;98587.50;;;10.67;86.69
62946;BME280;52164;52.212;-1.010;2022-11-15T07:54:26;98585.70;;;10.67;86.65
62946;BME280;52164;52.212;-1.010;2022-11-15T07:56:52;98580.70;;;10.67;86.75
62946;BME280;52164;52.212;-1.010;2022-11-15T07:59:17;98576.05;;;10.67;86.72
62946;BME280;52164;52.212;-1.010;2022-11-15T08:01:48;98576.23;;;10.67;86.71
62946;BME280;52164;52.212;-1.010;2022-11-15T08:04:13;98569.80;;;10.68;86.66
62946;BME280;52164;52.212;-1.010;2022-11-15T08:06:38;98568.68;;;10.70;86.74
62946;BME280;52164;52.212;-1.010;2022-11-15T08:09:04;98565.95;;;10.71;86.82
62946;BME280;52164;52.212;-1.010;2022-11-15T08:11:29;98560.23;;;10.72;87.03
62946;BME280;52164;52.212;-1.010;2022-11-15T08:13:55;98557.90;;;10.72;86.81
62946;BME280;52164;52.212;-1.010;2022-11-15T08:16:20;98553.96;;;10.72;86.83
62946;BME280;52164;52.212;-1.010;2022-11-15T08:18:48;98554.66;;;10.73;87.03
62946;BME280;52164;52.212;-1.010;2022-11-15T08:21:19;98541.81;;;10.73;86.95
62946;BME280;52164;52.212;-1.010;2022-11-15T08:23:45;98535.98;;;10.72;86.98
62946;BME280;52164;52.212;-1.010;2022-11-15T08:26:11;98531.86;;;10.72;87.11
62946;BME280;52164;52.212;-1.010;2022-11-15T08:28:37;98525.61;;;10.72;87.03
62946;BME280;52164;52.212;-1.010;2022-11-15T08:31:03;98520.44;;;10.72;87.31
62946;BME280;52164;52.212;-1.010;2022-11-15T08:33:29;98517.31;;;10.74;87.10
62946;BME280;52164;52.212;-1.010;2022-11-15T08:35:57;98513.16;;;10.76;87.15
62946;BME280;52164;52.212;-1.010;2022-11-15T08:38:23;98505.80;;;10.78;87.27
62946;BME280;52164;52.212;-1.010;2022-11-15T08:40:51;98507.16;;;10.80;87.18
62946;BME280;52164;52.212;-1.010;2022-11-15T08:43:20;98504.06;;;10.82;87.29
62946;BME280;52164;52.212;-1.010;2022-11-15T08:45:45;98495.24;;;10.84;87.50
62946;BME280;52164;52.212;-1.010;2022-11-15T08:48:11;98494.41;;;10.88;87.33
62946;BME280;52164;52.212;-1.010;2022-11-15T08:50:36;98491.63;;;10.91;87.38
62946;BME280;52164;52.212;-1.010;2022-11-15T08:53:06;98484.23;;;10.93;87.38
62946;BME280;52164;52.212;-1.010;2022-11-15T08:55:32;98477.39;;;10.94;87.39
62946;BME280;52164;52.212;-1.010;2022-11-15T08:57:58;98479.13;;;10.97;87.31
62946;BME280;52164;52.212;-1.010;2022-11-15T09:00:23;98475.15;;;10.98;87.23
62946;BME280;52164;52.212;-1.010;2022-11-15T09:02:48;98466.39;;;10.98;87.36
62946;BME280;52164;52.212;-1.010;2022-11-15T09:05:14;98463.66;;;11.00;87.56
62946;BME280;52164;52.212;-1.010;2022-11-15T09:07:45;98461.83;;;11.01;87.36
62946;BME280;52164;52.212;-1.010;2022-11-15T09:10:13;98461.23;;;11.03;87.49
62946;BME280;52164;52.212;-1.010;2022-11-15T09:12:40;98462.27;;;11.03;87.51
62946;BME280;52164;52.212;-1.010;2022-11-15T09:15:06;98449.06;;;11.04;87.55
62946;BME280;52164;52.212;-1.010;2022-11-15T09:17:31;98439.91;;;11.05;87.45
62946;BME280;52164;52.212;-1.010;2022-11-15T09:19:57;98436.44;;;11.07;87.58
62946;BME280;52164;52.212;-1.010;2022-11-15T09:22:25;98434.49;;;11.12;87.52
62946;BME280;52164;52.212;-1.010;2022-11-15T09:24:53;98430.24;;;11.16;87.59
62946;BME280;52164;52.212;-1.010;2022-11-15T09:27:19;98426.00;;;11.20;87.37
62946;BME280;52164;52.212;-1.010;2022-11-15T09:29:44;98425.25;;;11.21;87.43
62946;BME280;52164;52.212;-1.010;2022-11-15T09:32:09;98420.21;;;11.22;87.41
62946;BME280;52164;52.212;-1.010;2022-11-15T09:34:35;98420.89;;;11.23;87.47
62946;BME280;52164;52.212;-1.010;2022-11-15T09:37:03;98417.77;;;11.25;87.51
62946;BME280;52164;52.212;-1.010;2022-11-15T09:39:28;98411.40;;;11.29;87.45
62946;BME280;52164;52.212;-1.010;2022-11-15T09:42:33;98408.60;;;11.32;87.30
62946;BME280;52164;52.212;-1.010;2022-11-15T09:45:22;98398.34;;;11.34;87.22
62946;BME280;52164;52.212;-1.010;2022-11-15T09:49:03;98390.66;;;11.34;87.33
62946;BME280;52164;52.212;-1.010;2022-11-15T09:50:48;98386.48;;;11.36;87.28
62946;BME280;52164;52.212;-1.010;2022-11-15T09:53:24;98381.80;;;11.37;87.18
62946;BME280;52164;52.212;-1.010;2022-11-15T09:56:00;98377.09;;;11.39;87.18
62946;BME280;52164;52.212;-1.010;2022-11-15T10:00:56;98376.36;;;11.40;87.45
62946;BME280;52164;52.212;-1.010;2022-11-15T10:03:44;98370.44;;;11.40;87.13
62946;BME280;52164;52.212;-1.010;2022-11-15T10:04:22;98366.13;;;11.41;87.02
62946;BME280;52164;52.212;-1.010;2022-11-15T10:09:50;98367.51;;;11.42;87.13
62946;BME280;52164;52.212;-1.010;2022-11-15T10:12:20;98364.74;;;11.44;87.30
62946;BME280;52164;52.212;-1.010;2022-11-15T10:14:49;98361.80;;;11.46;87.39
62946;BME280;52164;52.212;-1.010;2022-11-15T10:20:20;98365.09;;;11.54;87.41
62946;BME280;52164;52.212;-1.010;2022-11-15T10:22:50;98358.08;;;11.60;87.33
62946;BME280;52164;52.212;-1.010;2022-11-15T10:25:23;98352.46;;;11.66;87.35
62946;BME280;52164;52.212;-1.010;2022-11-15T10:27:54;98349.92;;;11.72;87.19
62946;BME280;52164;52.212;-1.010;2022-11-15T10:30:20;98346.23;;;11.75;87.17
62946;BME280;52164;52.212;-1.010;2022-11-15T10:32:47;98345.94;;;11.78;87.30
62946;BME280;52164;52.212;-1.010;2022-11-15T10:35:21;98343.85;;;11.81;87.23
62946;BME280;52164;52.212;-1.010;2022-11-15T10:37:47;98339.63;;;11.84;87.17
62946;BME280;52164;52.212;-1.010;2022-11-15T10:40:20;98331.49;;;11.86;87.01
62946;BME280;52164;52.212;-1.010;2022-11-15T10:45:34;98316.31;;;11.90;86.95
62946;BME280;52164;52.212;-1.010;2022-11-15T10:48:20;98301.35;;;11.89;86.96
62946;BME280;52164;52.212;-1.010;2022-11-15T10:50:47;98295.91;;;11.87;86.99
62946;BME280;52164;52.212;-1.010;2022-11-15T10:53:19;98292.00;;;11.86;87.05
62946;BME280;52164;52.212;-1.010;2022-11-15T10:55:52;98288.76;;;11.83;87.23
62946;BME280;52164;52.212;-1.010;2022-11-15T10:58:38;98289.77;;;11.79;87.03
62946;BME280;52164;52.212;-1.010;2022-11-15T11:03:36;98275.25;;;11.76;87.35
62946;BME280;52164;52.212;-1.010;2022-11-15T11:06:08;98262.77;;;11.75;87.45
62946;BME280;52164;52.212;-1.010;2022-11-15T11:08:37;98255.07;;;11.76;87.38
62946;BME280;52164;52.212;-1.010;2022-11-15T11:11:04;98244.15;;;11.76;87.45
62946;BME280;52164;52.212;-1.010;2022-11-15T11:13:32;98238.96;;;11.76;87.36
62946;BME280;52164;52.212;-1.010;2022-11-15T11:16:19;98235.52;;;11.77;87.52
62946;BME280;52164;52.212;-1.010;2022-11-15T11:21:04;98227.44;;;11.78;87.30
62946;BME280;52164;52.212;-1.010;2022-11-15T11:25:03;98218.11;;;11.80;87.39
62946;BME280;52164;52.212;-1.010;2022-11-15T11:40:35;98190.70;;;11.90;87.32
62946;BME280;52164;52.212;-1.010;2022-11-15T11:48:50;98179.33;;;11.92;87.50
62946;BME280;52164;52.212;-1.010;2022-11-15T11:51:24;98173.05;;;11.93;87.51
62946;BME280;52164;52.212;-1.010;2022-11-15T11:53:57;98164.67;;;11.92;87.36
62946;BME280;52164;52.212;-1.010;2022-11-15T11:56:29;98163.95;;;11.93;87.57
62946;BME280;52164;52.212;-1.010;2022-11-15T12:01:28;98166.46;;;11.93;87.52
62946;BME280;52164;52.212;-1.010;2022-11-15T12:01:46;98161.02;;;11.95;87.46
62946;BME280;52164;52.212;-1.010;2022-11-15T12:04:36;98157.23;;;11.96;87.42
62946;BME280;52164;52.212;-1.010;2022-11-15T12:07:24;98151.23;;;11.98;87.47
62946;BME280;52164;52.212;-1.010;2022-11-15T12:10:01;98146.68;;;12.00;87.63
62946;BME280;52164;52.212;-1.010;2022-11-15T12:12:38;98136.08;;;12.01;87.63
62946;BME280;52164;52.212;-1.010;2022-11-15T12:15:22;98137.60;;;12.03;87.52
62946;BME280;52164;52.212;-1.010;2022-11-15T12:17:49;98132.67;;;12.05;87.62
62946;BME280;52164;52.212;-1.010;2022-11-15T12:20:18;98123.89;;;12.10;87.57
62946;BME280;52164;52.212;-1.010;2022-11-15T12:23:13;98118.70;;;12.14;87.63
62946;BME280;52164;52.212;-1.010;2022-11-15T12:25:50;98113.56;;;12.17;87.43
62946;BME280;52164;52.212;-1.010;2022-11-15T12:28:39;98104.66;;;12.20;87.49
62946;BME280;52164;52.212;-1.010;2022-11-15T12:31:35;98098.19;;;12.25;87.38
62946;BME280;52164;52.212;-1.010;2022-11-15T12:34:29;98093.64;;;12.27;87.23
62946;BME280;52164;52.212;-1.010;2022-11-15T12:36:55;98084.92;;;12.26;87.31
62946;BME280;52164;52.212;-1.010;2022-11-15T12:40:03;98080.84;;;12.25;87.40
62946;BME280;52164;52.212;-1.010;2022-11-15T12:47:26;98074.63;;;12.24;87.30
62946;BME280;52164;52.212;-1.010;2022-11-15T12:49:52;98089.73;;;12.22;87.23
62946;BME280;52164;52.212;-1.010;2022-11-15T12:52:18;98134.17;;;12.20;87.19
62946;BME280;52164;52.212;-1.010;2022-11-15T12:54:52;98141.88;;;12.16;87.47
62946;BME280;52164;52.212;-1.010;2022-11-15T13:02:25;98085.37;;;12.20;87.79
62946;BME280;52164;52.212;-1.010;2022-11-15T13:04:54;98070.42;;;12.26;87.95
62946;BME280;52164;52.212;-1.010;2022-11-15T13:12:53;98058.39;;;12.99;86.97
62946;BME280;52164;52.212;-1.010;2022-11-15T13:17:49;98051.96;;;13.46;86.33
62946;BME280;52164;52.212;-1.010;2022-11-15T13:22:46;98054.15;;;14.00;85.28
62946;BME280;52164;52.212;-1.010;2022-11-15T13:25:40;98059.30;;;14.11;84.23
62946;BME280;52164;52.212;-1.010;2022-11-15T13:28:35;98058.71;;;14.19;83.40
62946;BME280;52164;52.212;-1.010;2022-11-15T13:31:30;98056.38;;;14.22;82.80
62946;BME280;52164;52.212;-1.010;2022-11-15T13:34:00;98055.08;;;14.23;82.17
62946;BME280;52164;52.212;-1.010;2022-11-15T13:36:30;98057.26;;;14.16;81.53
62946;BME280;52164;52.212;-1.010;2022-11-15T13:41:26;98052.29;;;14.15;81.21
62946;BME280;52164;52.212;-1.010;2022-11-15T13:43:53;98052.50;;;14.21;81.05
62946;BME280;52164;52.212;-1.010;2022-11-15T13:46:35;98056.59;;;14.25;81.03
62946;BME280;52164;52.212;-1.010;2022-11-15T13:49:03;98054.48;;;14.24;80.96
62946;BME280;52164;52.212;-1.010;2022-11-15T13:51:46;98050.73;;;14.11;81.05
62946;BME280;52164;52.212;-1.010;2022-11-15T13:56:41;98058.57;;;13.81;80.96
62946;BME280;52164;52.212;-1.010;2022-11-15T13:59:10;98066.92;;;13.72;81.27
62946;BME280;52164;52.212;-1.010;2022-11-15T14:01:41;98074.05;;;13.66;81.60
62946;BME280;52164;52.212;-1.010;2022-11-15T14:04:13;98079.73;;;13.64;81.67
62946;BME280;52164;52.212;-1.010;2022-11-15T14:06:45;98079.59;;;13.60;81.83
62946;BME280;52164;52.212;-1.010;2022-11-15T14:11:50;98085.00;;;13.51;82.08
62946;BME280;52164;52.212;-1.010;2022-11-15T14:14:19;98079.48;;;13.54;82.14
62946;BME280;52164;52.212;-1.010;2022-11-15T14:16:48;98079.50;;;13.58;82.15
62946;BME280;52164;52.212;-1.010;2022-11-15T14:19:35;98080.73;;;13.51;82.06
62946;BME280;52164;52.212;-1.010;2022-11-15T14:22:22;98091.64;;;13.41;82.30
62946;BME280;52164;52.212;-1.010;2022-11-15T14:25:17;98093.49;;;13.28;82.58
62946;BME280;52164;52.212;-1.010;2022-11-15T14:28:15;98104.99;;;13.20;82.59
62946;BME280;52164;52.212;-1.010;2022-11-15T14:30:45;98104.48;;;13.16;82.76